Time;durP1;ratioP1;P1;durP2;ratioP2;P2;SDS_P1;SDS_P2;PMS_P1;PMS_P2;Temp;Humidity;BMP_temperature;BMP_pressure;BME280_temperature;BME280_humidity;BME280_pressure;Samples;Min_cycle;Max_cycle;Signal;HPM_P1;HPM_P2
2023/11/22 00:00:07;;;;;;;20.83;10.15;;;;;;;;;;4986038;28;20390;-67
2023/11/22 00:02:32;;;;;;;19.80;9.85;;;;;;;;;;4987876;28;20030;-67
2023/11/22 00:04:58;;;;;;;25.77;10.17;;;;;;;;;;4987683;28;20382;-67
2023/11/22 00:07:23;;;;;;;21.77;9.32;;;;;;;;;;4986506;28;20249;-67
2023/11/22 00:09:48;;;;;;;21.35;11.02;;;;;;;;;;4987338;28;20026;-67
2023/11/22 00:12:13;;;;;;;18.00;9.90;;;;;;;;;;4986190;28;20109;-67
2023/11/22 00:14:39;;;;;;;25.10;10.07;;;;;;;;;;4991465;28;20255;-67
2023/11/22 00:17:04;;;;;;;19.42;9.40;;;;;;;;;;4986474;28;20568;-67
2023/11/22 00:19:30;;;;;;;18.38;9.60;;;;;;;;;;4983439;28;20022;-67
2023/11/22 00:21:55;;;;;;;22.45;10.23;;;;;;;;;;4987659;28;20061;-67
2023/11/22 00:24:21;;;;;;;18.15;8.70;;;;;;;;;;4990250;28;20492;-67
2023/11/22 00:26:46;;;;;;;19.13;9.45;;;;;;;;;;4993324;28;20409;-67
2023/11/22 00:29:11;;;;;;;18.90;10.13;;;;;;;;;;4988258;28;20011;-67
2023/11/22 00:31:36;;;;;;;18.00;9.43;;;;;;;;;;4993288;28;20133;-67
2023/11/22 00:34:02;;;;;;;19.77;9.23;;;;;;;;;;4991129;28;20431;-67
2023/11/22 00:36:27;;;;;;;20.73;9.70;;;;;;;;;;4985958;28;20109;-67
2023/11/22 00:38:52;;;;;;;18.00;9.40;;;;;;;;;;4988262;28;20304;-67
2023/11/22 00:41:17;;;;;;;21.13;8.93;;;;;;;;;;4985444;28;20289;-67
2023/11/22 00:43:42;;;;;;;18.23;8.90;;;;;;;;;;4992188;28;20286;-67
2023/11/22 00:46:07;;;;;;;27.05;9.57;;;;;;;;;;4991397;28;20265;-67
2023/11/22 00:48:33;;;;;;;18.10;8.97;;;;;;;;;;4991610;28;20022;-67
2023/11/22 00:50:58;;;;;;;19.73;9.00;;;;;;;;;;4992982;28;20270;-67
2023/11/22 00:53:23;;;;;;;15.93;8.48;;;;;;;;;;4992046;28;20293;-67
2023/11/22 00:55:49;;;;;;;24.83;9.20;;;;;;;;;;4992691;28;20022;-67
2023/11/22 00:58:14;;;;;;;22.65;8.90;;;;;;;;;;4991683;28;20026;-67
2023/11/22 01:00:39;;;;;;;17.13;9.05;;;;;;;;;;4993757;28;20105;-67
2023/11/22 01:03:05;;;;;;;24.40;10.27;;;;;;;;;;4986964;28;20394;-67
2023/11/22 01:05:30;;;;;;;25.50;9.65;;;;;;;;;;4988926;28;20025;-67
2023/11/22 01:07:55;;;;;;;18.13;9.00;;;;;;;;;;4991605;28;20034;-67
2023/11/22 01:10:20;;;;;;;18.83;8.82;;;;;;;;;;4984862;28;20321;-67
2023/11/22 01:12:45;;;;;;;20.70;9.98;;;;;;;;;;4989226;28;20053;-67
2023/11/22 01:15:11;;;;;;;23.23;9.20;;;;;;;;;;4992656;28;20061;-67
2023/11/22 01:17:36;;;;;;;18.67;9.27;;;;;;;;;;4990723;28;20257;-67
2023/11/22 01:20:03;;;;;;;19.05;8.80;;;;;;;;;;4988471;28;20070;-67
2023/11/22 01:22:28;;;;;;;19.10;9.30;;;;;;;;;;4982779;28;20081;-67
2023/11/22 01:24:53;;;;;;;17.83;9.38;;;;;;;;;;4991025;28;20026;-67
2023/11/22 01:27:19;;;;;;;24.23;11.05;;;;;;;;;;4988319;28;20027;-67
2023/11/22 01:29:44;;;;;;;19.92;10.32;;;;;;;;;;4989429;28;20018;-67
2023/11/22 01:32:09;;;;;;;17.03;9.93;;;;;;;;;;4986413;28;20037;-67
2023/11/22 01:34:34;;;;;;;16.87;9.30;;;;;;;;;;4989480;28;20328;-67
2023/11/22 01:36:59;;;;;;;18.13;9.55;;;;;;;;;;4989147;28;20277;-67
2023/11/22 01:39:26;;;;;;;20.50;9.80;;;;;;;;;;4984018;28;20488;-67
2023/11/22 01:41:51;;;;;;;29.80;10.98;;;;;;;;;;4987344;28;20273;-67
2023/11/22 01:44:18;;;;;;;21.65;10.45;;;;;;;;;;4992109;28;20026;-67
2023/11/22 01:46:43;;;;;;;21.33;10.57;;;;;;;;;;4989847;28;20021;-67
2023/11/22 01:49:09;;;;;;;26.17;10.77;;;;;;;;;;4987368;28;20026;-67
2023/11/22 01:51:35;;;;;;;19.90;10.55;;;;;;;;;;4987927;28;20153;-67
2023/11/22 01:54:01;;;;;;;20.60;10.05;;;;;;;;;;4985530;28;20103;-67
2023/11/22 01:56:26;;;;;;;21.55;10.98;;;;;;;;;;4990550;28;20492;-67
2023/11/22 01:58:54;;;;;;;22.13;10.75;;;;;;;;;;4984895;28;20122;-67
2023/11/22 02:01:19;;;;;;;20.33;11.40;;;;;;;;;;4984639;28;20026;-67
2023/11/22 02:03:45;;;;;;;28.08;12.27;;;;;;;;;;4989306;28;20512;-67
2023/11/22 02:06:10;;;;;;;27.42;11.52;;;;;;;;;;4989322;28;20378;-67
2023/11/22 02:08:35;;;;;;;24.83;11.43;;;;;;;;;;4992315;28;20022;-67
2023/11/22 02:11:04;;;;;;;21.55;11.02;;;;;;;;;;4988123;28;20020;-67
2023/11/22 02:13:29;;;;;;;20.77;10.73;;;;;;;;;;4984244;28;20437;-67
2023/11/22 02:15:56;;;;;;;23.13;10.60;;;;;;;;;;4990202;28;20046;-67
2023/11/22 02:18:21;;;;;;;21.15;11.50;;;;;;;;;;4990445;28;20033;-67
2023/11/22 02:20:46;;;;;;;20.20;10.02;;;;;;;;;;4990887;28;20026;-67
2023/11/22 02:23:12;;;;;;;18.33;9.33;;;;;;;;;;4990073;28;20018;-67
2023/11/22 02:25:37;;;;;;;22.50;10.65;;;;;;;;;;4988965;28;20831;-67
2023/11/22 02:28:02;;;;;;;18.45;9.20;;;;;;;;;;4991494;28;20023;-67
2023/11/22 02:30:28;;;;;;;18.88;9.60;;;;;;;;;;4987933;28;20028;-67
2023/11/22 02:32:54;;;;;;;20.38;10.38;;;;;;;;;;4988742;28;20080;-67
2023/11/22 02:35:19;;;;;;;19.67;10.20;;;;;;;;;;4985380;28;20097;-67
2023/11/22 02:37:45;;;;;;;19.75;10.80;;;;;;;;;;4990076;28;20019;-67
2023/11/22 02:40:13;;;;;;;22.35;9.50;;;;;;;;;;4987595;28;20038;-67
2023/11/22 02:42:38;;;;;;;20.50;10.07;;;;;;;;;;4990106;28;20034;-66
2023/11/22 02:45:05;;;;;;;18.42;9.45;;;;;;;;;;4991565;28;20025;-67
2023/11/22 02:47:30;;;;;;;20.52;9.27;;;;;;;;;;4985158;28;20026;-67
2023/11/22 02:49:55;;;;;;;21.67;10.80;;;;;;;;;;4990509;28;20019;-67
2023/11/22 02:52:21;;;;;;;19.95;10.27;;;;;;;;;;4988931;28;20045;-67
2023/11/22 02:54:47;;;;;;;17.98;9.57;;;;;;;;;;4991508;28;20104;-67
2023/11/22 02:57:12;;;;;;;22.95;10.07;;;;;;;;;;4988049;28;20081;-67
2023/11/22 02:59:41;;;;;;;20.15;9.30;;;;;;;;;;4989862;28;20184;-67
2023/11/22 03:02:07;;;;;;;18.63;9.15;;;;;;;;;;4989800;28;20038;-67
2023/11/22 03:04:32;;;;;;;21.45;9.80;;;;;;;;;;4990326;28;20010;-67
2023/11/22 03:06:57;;;;;;;19.60;9.38;;;;;;;;;;4990248;28;20382;-67
2023/11/22 03:09:23;;;;;;;23.23;8.87;;;;;;;;;;4990389;28;20409;-67
2023/11/22 03:11:48;;;;;;;18.48;9.38;;;;;;;;;;4990588;28;20276;-67
2023/11/22 03:14:13;;;;;;;15.65;8.98;;;;;;;;;;4988031;28;20457;-67
2023/11/22 03:16:39;;;;;;;19.47;8.53;;;;;;;;;;4990436;28;20424;-67
2023/11/22 03:19:04;;;;;;;19.38;9.48;;;;;;;;;;4991757;28;20273;-67
2023/11/22 03:21:29;;;;;;;14.90;8.17;;;;;;;;;;4985603;28;20105;-67
2023/11/22 03:23:54;;;;;;;20.43;9.20;;;;;;;;;;4991474;28;20278;-67
2023/11/22 03:26:19;;;;;;;17.65;7.78;;;;;;;;;;4971044;28;20260;-67
2023/11/22 03:28:45;;;;;;;18.43;9.63;;;;;;;;;;4990872;28;20583;-67
2023/11/22 03:31:10;;;;;;;15.90;8.52;;;;;;;;;;4989179;28;20253;-67
2023/11/22 03:33:35;;;;;;;15.35;7.95;;;;;;;;;;4988326;28;20025;-67
2023/11/22 03:36:02;;;;;;;15.02;8.18;;;;;;;;;;4990903;28;20018;-67
2023/11/22 03:38:27;;;;;;;16.35;8.43;;;;;;;;;;4987729;28;20031;-67
2023/11/22 03:40:53;;;;;;;19.08;8.93;;;;;;;;;;4992224;28;20034;-67
2023/11/22 03:43:18;;;;;;;15.15;7.93;;;;;;;;;;4993166;28;20030;-67
2023/11/22 03:45:43;;;;;;;18.50;9.48;;;;;;;;;;4989514;28;20114;-67
2023/11/22 03:48:09;;;;;;;20.75;8.55;;;;;;;;;;4993459;28;20451;-67
2023/11/22 03:50:34;;;;;;;15.77;9.07;;;;;;;;;;4992892;28;20022;-67
2023/11/22 03:52:59;;;;;;;19.02;9.07;;;;;;;;;;4994313;28;20285;-67
2023/11/22 03:55:24;;;;;;;17.10;8.70;;;;;;;;;;4993819;28;20022;-67
2023/11/22 03:57:49;;;;;;;20.52;9.35;;;;;;;;;;4990858;28;20614;-67
2023/11/22 04:00:15;;;;;;;20.55;9.63;;;;;;;;;;4990799;28;20046;-67
2023/11/22 04:02:41;;;;;;;19.35;9.90;;;;;;;;;;4993726;28;20034;-67
2023/11/22 04:05:07;;;;;;;18.98;9.27;;;;;;;;;;4994843;28;20492;-67
2023/11/22 04:07:32;;;;;;;22.63;10.00;;;;;;;;;;4992766;28;20093;-67
2023/11/22 04:09:57;;;;;;;17.73;10.25;;;;;;;;;;4986800;28;20015;-67
2023/11/22 04:12:22;;;;;;;28.48;9.75;;;;;;;;;;4991976;28;20026;-67
2023/11/22 04:14:47;;;;;;;24.48;11.35;;;;;;;;;;4992567;28;20488;-67
2023/11/22 04:17:13;;;;;;;22.48;9.65;;;;;;;;;;4993362;28;20027;-67
2023/11/22 04:19:38;;;;;;;26.52;10.32;;;;;;;;;;4992723;28;20088;-67
2023/11/22 04:22:03;;;;;;;18.53;9.93;;;;;;;;;;4991296;28;20445;-67
2023/11/22 04:24:28;;;;;;;21.42;10.10;;;;;;;;;;4992485;28;20250;-67
2023/11/22 04:26:54;;;;;;;23.27;11.10;;;;;;;;;;4992724;28;20030;-67
2023/11/22 04:29:19;;;;;;;24.27;11.52;;;;;;;;;;4992428;28;20552;-67
2023/11/22 04:31:44;;;;;;;28.95;11.20;;;;;;;;;;4992846;28;20528;-67
2023/11/22 04:34:09;;;;;;;22.37;10.83;;;;;;;;;;4992750;28;20022;-67
2023/11/22 04:36:34;;;;;;;21.13;10.40;;;;;;;;;;4992008;28;20289;-67
2023/11/22 04:39:00;;;;;;;24.97;11.23;;;;;;;;;;4991297;28;20261;-67
2023/11/22 04:41:26;;;;;;;27.05;12.10;;;;;;;;;;4992367;28;20265;-67
2023/11/22 04:43:51;;;;;;;25.60;10.40;;;;;;;;;;4988456;28;20046;-67
2023/11/22 04:46:16;;;;;;;24.30;11.45;;;;;;;;;;4991314;28;20380;-67
2023/11/22 04:48:44;;;;;;;19.23;10.30;;;;;;;;;;4991732;28;20034;-67
2023/11/22 04:51:10;;;;;;;26.17;11.07;;;;;;;;;;4991960;28;20026;-67
2023/11/22 04:53:35;;;;;;;22.35;10.55;;;;;;;;;;4991931;28;20030;-67
2023/11/22 04:56:05;;;;;;;24.27;10.93;;;;;;;;;;4993010;28;20049;-67
2023/11/22 04:58:30;;;;;;;21.23;10.43;;;;;;;;;;4984206;28;20262;-67
2023/11/22 05:00:56;;;;;;;22.40;10.25;;;;;;;;;;4986781;28;20023;-67
2023/11/22 05:03:21;;;;;;;23.20;10.52;;;;;;;;;;4990225;28;20027;-67
2023/11/22 05:05:47;;;;;;;19.83;10.37;;;;;;;;;;4989242;28;20109;-67
2023/11/22 05:08:13;;;;;;;23.65;11.38;;;;;;;;;;4988786;28;20612;-67
2023/11/22 05:10:38;;;;;;;20.58;10.82;;;;;;;;;;4988896;28;20014;-67
2023/11/22 05:13:05;;;;;;;19.77;10.38;;;;;;;;;;4989806;28;20026;-67
2023/11/22 05:15:30;;;;;;;25.15;11.18;;;;;;;;;;4991419;28;20495;-67
2023/11/22 05:17:55;;;;;;;22.30;10.85;;;;;;;;;;4993239;28;20031;-67
2023/11/22 05:20:21;;;;;;;25.65;11.57;;;;;;;;;;4991183;28;20029;-67
2023/11/22 05:22:46;;;;;;;24.42;11.15;;;;;;;;;;4991336;28;20116;-67
2023/11/22 05:25:11;;;;;;;22.90;10.40;;;;;;;;;;4991561;28;20022;-67
2023/11/22 05:27:36;;;;;;;25.63;10.70;;;;;;;;;;4983884;28;20058;-67
2023/11/22 05:30:01;;;;;;;30.20;11.65;;;;;;;;;;4992539;28;20273;-67
2023/11/22 05:32:28;;;;;;;18.63;10.07;;;;;;;;;;4990811;28;20029;-67
2023/11/22 05:34:53;;;;;;;20.42;9.10;;;;;;;;;;4990858;28;20029;-67
2023/11/22 05:37:18;;;;;;;20.92;9.35;;;;;;;;;;4990617;28;20291;-67
2023/11/22 05:39:44;;;;;;;17.30;8.55;;;;;;;;;;4986348;28;20018;-67
2023/11/22 05:42:09;;;;;;;19.65;8.60;;;;;;;;;;4987247;28;20089;-67
2023/11/22 05:44:35;;;;;;;17.33;8.05;;;;;;;;;;4990383;28;20040;-67
2023/11/22 05:47:00;;;;;;;18.50;8.32;;;;;;;;;;4991139;28;20018;-67
2023/11/22 05:49:25;;;;;;;16.90;8.27;;;;;;;;;;4991775;28;20022;-67
2023/11/22 05:51:50;;;;;;;16.37;8.53;;;;;;;;;;4990550;28;20023;-67
2023/11/22 05:54:16;;;;;;;19.92;7.40;;;;;;;;;;4990318;28;20281;-67
2023/11/22 05:56:41;;;;;;;15.80;7.65;;;;;;;;;;4985835;28;20069;-67
2023/11/22 05:59:06;;;;;;;16.73;7.50;;;;;;;;;;4990610;28;20034;-67
2023/11/22 06:01:32;;;;;;;17.52;8.07;;;;;;;;;;4987903;28;20023;-67
2023/11/22 06:03:57;;;;;;;16.95;7.80;;;;;;;;;;4982785;28;20477;-67
2023/11/22 06:06:22;;;;;;;15.43;7.73;;;;;;;;;;4980238;28;20034;-67
2023/11/22 06:08:48;;;;;;;16.13;7.53;;;;;;;;;;4988893;28;20351;-67
2023/11/22 06:11:15;;;;;;;16.38;7.28;;;;;;;;;;4986043;28;20069;-67
2023/11/22 06:13:40;;;;;;;20.35;7.65;;;;;;;;;;4986130;28;20030;-67
2023/11/22 06:16:06;;;;;;;14.98;7.35;;;;;;;;;;4989481;28;20102;-67
2023/11/22 06:18:31;;;;;;;15.75;7.53;;;;;;;;;;4990158;28;20022;-67
2023/11/22 06:20:56;;;;;;;17.52;7.13;;;;;;;;;;4989959;28;20129;-67
2023/11/22 06:23:22;;;;;;;19.30;7.03;;;;;;;;;;4989654;28;20098;-67
2023/11/22 06:25:47;;;;;;;19.45;7.70;;;;;;;;;;4989936;28;20030;-67
2023/11/22 06:28:12;;;;;;;20.05;8.50;;;;;;;;;;4988908;28;20029;-67
2023/11/22 06:30:38;;;;;;;13.73;7.32;;;;;;;;;;4988518;28;20461;-67
2023/11/22 06:33:03;;;;;;;16.08;7.53;;;;;;;;;;4989822;28;20424;-67
2023/11/22 06:35:28;;;;;;;13.68;7.95;;;;;;;;;;4983311;28;20362;-67
2023/11/22 06:37:53;;;;;;;15.30;8.15;;;;;;;;;;4981839;28;20034;-67
2023/11/22 06:40:20;;;;;;;12.55;6.78;;;;;;;;;;4981963;28;20022;-67
2023/11/22 06:42:46;;;;;;;21.98;6.50;;;;;;;;;;4987927;28;20038;-67
2023/11/22 06:45:12;;;;;;;15.00;6.70;;;;;;;;;;4988482;28;20136;-67
2023/11/22 06:47:38;;;;;;;14.80;7.05;;;;;;;;;;4987945;28;20080;-67
2023/11/22 06:50:08;;;;;;;13.85;6.82;;;;;;;;;;4989282;28;20517;-67
2023/11/22 06:52:34;;;;;;;17.55;7.63;;;;;;;;;;4984557;28;20018;-67
2023/11/22 06:54:59;;;;;;;21.05;7.70;;;;;;;;;;4989685;28;20026;-67
2023/11/22 06:57:28;;;;;;;17.10;7.13;;;;;;;;;;4985645;28;20038;-65
2023/11/22 06:59:54;;;;;;;15.45;7.07;;;;;;;;;;4985746;28;20277;-66
2023/11/22 07:02:19;;;;;;;18.45;8.00;;;;;;;;;;4989097;28;20128;-66
2023/11/22 07:04:44;;;;;;;15.40;7.25;;;;;;;;;;4989915;28;20097;-65
2023/11/22 07:07:10;;;;;;;20.45;7.13;;;;;;;;;;4989494;28;20045;-66
2023/11/22 07:09:36;;;;;;;16.20;7.60;;;;;;;;;;4990367;28;20125;-66
2023/11/22 07:12:02;;;;;;;18.08;7.97;;;;;;;;;;4988858;28;20121;-65
2023/11/22 07:14:28;;;;;;;20.13;7.72;;;;;;;;;;4987957;28;20022;-65
2023/11/22 07:16:55;;;;;;;17.33;8.23;;;;;;;;;;4992878;28;20384;-65
2023/11/22 07:19:20;;;;;;;18.95;8.43;;;;;;;;;;4974833;28;20042;-66
2023/11/22 07:21:48;;;;;;;18.20;7.90;;;;;;;;;;4993173;28;20019;-66
2023/11/22 07:24:15;;;;;;;19.90;7.90;;;;;;;;;;4992638;28;20018;-66
2023/11/22 07:26:42;;;;;;;21.88;8.27;;;;;;;;;;4990567;28;20117;-66
2023/11/22 07:29:07;;;;;;;17.73;7.70;;;;;;;;;;4988354;28;20121;-66
2023/11/22 07:31:32;;;;;;;12.77;6.75;;;;;;;;;;4992743;28;20442;-66
2023/11/22 07:33:57;;;;;;;16.52;8.43;;;;;;;;;;4992870;28;20018;-66
2023/11/22 07:36:23;;;;;;;25.05;9.18;;;;;;;;;;4992926;28;20531;-66
2023/11/22 07:38:48;;;;;;;25.92;12.77;;;;;;;;;;4992303;28;20030;-66
2023/11/22 07:41:13;;;;;;;40.08;21.13;;;;;;;;;;4989785;28;20030;-66
2023/11/22 07:43:38;;;;;;;37.42;17.95;;;;;;;;;;4991330;28;20105;-65
2023/11/22 07:46:12;;;;;;;21.67;9.65;;;;;;;;;;4992613;28;20023;-67
2023/11/22 07:48:38;;;;;;;29.33;10.25;;;;;;;;;;4993929;28;20065;-66
2023/11/22 07:51:03;;;;;;;18.42;9.75;;;;;;;;;;4990566;28;20444;-66
2023/11/22 07:53:29;;;;;;;25.67;14.68;;;;;;;;;;4988754;28;20532;-66
2023/11/22 07:55:54;;;;;;;24.95;12.05;;;;;;;;;;4990693;28;20018;-66
2023/11/22 07:58:20;;;;;;;28.10;13.75;;;;;;;;;;4991519;28;20037;-66
2023/11/22 08:00:45;;;;;;;28.67;14.43;;;;;;;;;;4993995;28;20050;-66
2023/11/22 08:03:10;;;;;;;32.47;17.38;;;;;;;;;;4985466;28;20027;-66
2023/11/22 08:05:39;;;;;;;18.75;9.20;;;;;;;;;;4991012;28;20046;-66
2023/11/22 08:08:08;;;;;;;16.10;8.23;;;;;;;;;;4990122;28;20022;-65
2023/11/22 08:10:36;;;;;;;13.88;7.15;;;;;;;;;;4989375;28;20019;-66
2023/11/22 08:13:03;;;;;;;14.82;7.60;;;;;;;;;;4983637;28;20077;-66
2023/11/22 08:15:28;;;;;;;13.70;6.63;;;;;;;;;;4998967;28;20046;-66
2023/11/22 08:17:53;;;;;;;11.43;6.03;;;;;;;;;;4991969;28;20516;-66
2023/11/22 08:20:19;;;;;;;8.23;5.30;;;;;;;;;;4991486;28;20647;-66
2023/11/22 08:22:50;;;;;;;12.65;5.97;;;;;;;;;;4995056;28;20433;-66
2023/11/22 08:25:15;;;;;;;13.77;5.53;;;;;;;;;;4989671;28;20351;-66
2023/11/22 08:27:41;;;;;;;15.38;5.30;;;;;;;;;;4991830;28;20075;-66
2023/11/22 08:30:09;;;;;;;10.25;5.68;;;;;;;;;;4991701;28;20125;-66
2023/11/22 08:32:38;;;;;;;11.68;5.43;;;;;;;;;;4997354;28;20161;-66
2023/11/22 08:35:07;;;;;;;8.50;4.88;;;;;;;;;;4989412;28;20121;-67
2023/11/22 08:37:35;;;;;;;10.00;5.45;;;;;;;;;;4982489;28;20018;-67
2023/11/22 08:40:00;;;;;;;15.40;5.18;;;;;;;;;;4974280;28;20497;-66
2023/11/22 08:42:25;;;;;;;10.33;4.60;;;;;;;;;;4985785;28;20134;-66
2023/11/22 08:44:51;;;;;;;7.07;4.03;;;;;;;;;;4991704;28;20257;-66
2023/11/22 08:47:17;;;;;;;7.35;4.13;;;;;;;;;;4991464;28;20474;-66
2023/11/22 08:49:43;;;;;;;5.78;3.92;;;;;;;;;;4991293;28;20034;-66
2023/11/22 08:52:08;;;;;;;10.07;4.60;;;;;;;;;;4997876;28;20018;-66
2023/11/22 08:54:33;;;;;;;9.70;4.87;;;;;;;;;;4982725;28;20412;-66
2023/11/22 08:56:58;;;;;;;8.93;4.83;;;;;;;;;;4985132;28;20357;-66
2023/11/22 08:59:23;;;;;;;7.77;5.13;;;;;;;;;;4990766;28;20269;-67
2023/11/22 09:01:48;;;;;;;7.28;4.10;;;;;;;;;;4990496;28;20288;-67
2023/11/22 09:04:15;;;;;;;8.27;4.93;;;;;;;;;;4978025;28;20049;-66
2023/11/22 09:06:40;;;;;;;8.35;5.63;;;;;;;;;;4985614;28;20253;-66
2023/11/22 09:09:05;;;;;;;10.87;5.30;;;;;;;;;;4990314;28;20491;-66
2023/11/22 09:11:31;;;;;;;9.13;5.53;;;;;;;;;;4991596;28;20257;-66
2023/11/22 09:13:57;;;;;;;8.45;5.20;;;;;;;;;;4990603;28;20023;-66
2023/11/22 09:16:24;;;;;;;9.10;4.88;;;;;;;;;;4980014;28;20023;-66
2023/11/22 09:18:50;;;;;;;7.72;3.85;;;;;;;;;;4979157;28;20200;-66
2023/11/22 09:21:15;;;;;;;10.00;4.03;;;;;;;;;;4978910;28;20029;-66
2023/11/22 09:23:42;;;;;;;7.67;4.27;;;;;;;;;;4991069;28;20857;-66
2023/11/22 09:26:07;;;;;;;7.63;3.97;;;;;;;;;;4991385;28;20285;-66
2023/11/22 09:28:32;;;;;;;5.57;3.17;;;;;;;;;;4990674;28;20330;-66
2023/11/22 09:31:07;;;;;;;6.87;2.73;;;;;;;;;;4989857;28;20038;-67
2023/11/22 09:33:32;;;;;;;6.85;2.30;;;;;;;;;;4991114;28;20761;-66
2023/11/22 09:35:58;;;;;;;7.03;2.97;;;;;;;;;;4981699;28;20034;-66
2023/11/22 09:38:23;;;;;;;5.45;2.20;;;;;;;;;;4987580;28;20265;-67
2023/11/22 09:40:48;;;;;;;5.35;2.50;;;;;;;;;;4989043;28;20026;-66
2023/11/22 09:43:17;;;;;;;5.03;2.70;;;;;;;;;;4983591;28;20034;-66
2023/11/22 09:45:46;;;;;;;4.30;1.95;;;;;;;;;;4984330;28;20062;-66
2023/11/22 09:48:14;;;;;;;3.88;2.22;;;;;;;;;;4973508;28;20015;-66
2023/11/22 09:51:05;;;;;;;7.88;2.08;;;;;;;;;;4990358;28;20382;-66
2023/11/22 09:53:36;;;;;;;5.32;1.75;;;;;;;;;;4949205;28;20034;-66
2023/11/22 09:56:03;;;;;;;3.53;1.67;;;;;;;;;;4989245;28;20092;-66
2023/11/22 09:58:32;;;;;;;3.70;2.08;;;;;;;;;;4976685;28;20090;-66
2023/11/22 10:00:59;;;;;;;5.22;1.63;;;;;;;;;;4979081;28;20019;-66
2023/11/22 10:03:26;;;;;;;6.53;2.10;;;;;;;;;;4990524;28;20037;-66
2023/11/22 10:05:52;;;;;;;2.33;1.60;;;;;;;;;;4989800;28;20370;-66
2023/11/22 10:08:18;;;;;;;5.03;1.70;;;;;;;;;;4989743;28;20050;-66
2023/11/22 10:10:45;;;;;;;1.95;1.40;;;;;;;;;;4989620;28;20029;-66
2023/11/22 10:13:12;;;;;;;3.60;1.80;;;;;;;;;;4979034;28;20485;-65
2023/11/22 10:15:37;;;;;;;5.57;1.95;;;;;;;;;;4976394;28;20011;-66
2023/11/22 10:18:03;;;;;;;3.88;1.90;;;;;;;;;;4989232;28;20049;-65
2023/11/22 10:20:36;;;;;;;3.13;1.48;;;;;;;;;;4994661;28;20425;-66
2023/11/22 10:23:01;;;;;;;3.08;1.13;;;;;;;;;;4988759;28;20022;-66
2023/11/22 10:25:26;;;;;;;3.67;1.20;;;;;;;;;;4989504;28;20022;-65
2023/11/22 10:27:51;;;;;;;2.83;1.37;;;;;;;;;;4974531;28;20313;-66
2023/11/22 10:30:17;;;;;;;4.47;1.10;;;;;;;;;;4981406;28;20262;-66
2023/11/22 10:32:42;;;;;;;2.33;1.20;;;;;;;;;;4989738;28;20261;-65
2023/11/22 10:35:07;;;;;;;3.05;1.30;;;;;;;;;;4989055;28;20053;-66
2023/11/22 10:37:34;;;;;;;3.47;1.40;;;;;;;;;;4989619;28;20401;-65
2023/11/22 10:39:59;;;;;;;4.00;1.05;;;;;;;;;;4989281;28;20034;-66
2023/11/22 10:42:26;;;;;;;2.03;1.20;;;;;;;;;;4979959;28;20031;-66
2023/11/22 10:44:54;;;;;;;3.28;2.08;;;;;;;;;;4989542;28;20296;-66
2023/11/22 10:47:19;;;;;;;5.35;1.10;;;;;;;;;;4989441;28;20397;-66
2023/11/22 10:49:44;;;;;;;1.80;1.20;;;;;;;;;;4989660;28;20022;-66
2023/11/22 10:52:12;;;;;;;4.72;1.88;;;;;;;;;;4992600;28;20025;-65
2023/11/22 10:54:39;;;;;;;3.15;1.25;;;;;;;;;;4993143;28;20022;-65
2023/11/22 10:57:04;;;;;;;5.55;1.52;;;;;;;;;;4984336;28;20023;-66
2023/11/22 10:59:31;;;;;;;3.58;1.40;;;;;;;;;;4986557;28;20101;-66
2023/11/22 11:01:58;;;;;;;2.92;1.20;;;;;;;;;;4993035;28;20014;-66
2023/11/22 11:04:27;;;;;;;3.03;1.40;;;;;;;;;;4993091;28;20161;-65
2023/11/22 11:06:55;;;;;;;4.63;1.90;;;;;;;;;;5000237;28;20022;-66
2023/11/22 11:09:22;;;;;;;3.88;1.88;;;;;;;;;;4993525;28;20027;-66
2023/11/22 11:11:47;;;;;;;6.43;2.80;;;;;;;;;;4986134;28;20093;-66
2023/11/22 11:14:13;;;;;;;5.40;3.08;;;;;;;;;;4978554;28;20454;-66
2023/11/22 11:16:47;;;;;;;12.02;2.80;;;;;;;;;;4980234;28;20090;-66
2023/11/22 11:19:13;;;;;;;10.20;2.70;;;;;;;;;;4992559;28;20022;-66
2023/11/22 11:21:39;;;;;;;5.60;2.50;;;;;;;;;;4993016;28;20268;-66
2023/11/22 11:24:05;;;;;;;5.55;2.15;;;;;;;;;;4992960;28;20026;-66
2023/11/22 11:26:36;;;;;;;13.30;1.92;;;;;;;;;;4991114;28;20033;-65
2023/11/22 11:29:03;;;;;;;4.85;2.42;;;;;;;;;;4984371;28;20022;-66
2023/11/22 11:31:35;;;;;;;4.53;2.53;;;;;;;;;;4987696;28;20081;-65
2023/11/22 11:34:01;;;;;;;5.28;2.47;;;;;;;;;;4989861;28;20547;-65
2023/11/22 11:36:31;;;;;;;5.72;2.47;;;;;;;;;;4992614;28;20026;-66
2023/11/22 11:38:57;;;;;;;4.40;1.67;;;;;;;;;;4992932;28;20026;-66
2023/11/22 11:41:25;;;;;;;3.05;1.60;;;;;;;;;;4992464;28;20076;-66
2023/11/22 11:43:50;;;;;;;5.72;3.03;;;;;;;;;;4992093;28;20109;-66
2023/11/22 11:46:15;;;;;;;6.03;2.95;;;;;;;;;;4977129;28;20145;-66
2023/11/22 11:48:44;;;;;;;8.18;3.28;;;;;;;;;;4986693;28;20093;-65
2023/11/22 11:51:13;;;;;;;8.68;2.83;;;;;;;;;;4992240;28;20054;-66
2023/11/22 11:53:38;;;;;;;10.95;3.80;;;;;;;;;;4992776;28;20010;-66
2023/11/22 11:56:03;;;;;;;6.43;2.17;;;;;;;;;;4992735;28;20102;-66
2023/11/22 11:58:28;;;;;;;13.27;1.45;;;;;;;;;;4990869;28;20316;-66
2023/11/22 12:00:54;;;;;;;6.28;3.13;;;;;;;;;;4984393;28;20414;-65
2023/11/22 12:03:21;;;;;;;5.82;2.92;;;;;;;;;;4988921;28;20041;-65
2023/11/22 12:05:46;;;;;;;14.80;5.30;;;;;;;;;;4979546;28;20042;-65
2023/11/22 12:08:15;;;;;;;7.75;3.05;;;;;;;;;;4989381;28;20026;-65
2023/11/22 12:10:40;;;;;;;5.28;2.88;;;;;;;;;;4991728;28;20536;-66
2023/11/22 12:13:07;;;;;;;9.83;3.13;;;;;;;;;;4991955;28;20069;-66
2023/11/22 12:15:33;;;;;;;7.93;3.47;;;;;;;;;;4991671;28;20250;-66
2023/11/22 12:17:59;;;;;;;9.27;3.17;;;;;;;;;;4983924;28;20446;-66
2023/11/22 12:20:26;;;;;;;5.60;2.50;;;;;;;;;;4988352;28;20528;-66
2023/11/22 12:22:51;;;;;;;5.47;2.35;;;;;;;;;;4974847;28;20034;-66
2023/11/22 12:25:16;;;;;;;6.28;2.50;;;;;;;;;;4974190;28;20433;-66
2023/11/22 12:27:42;;;;;;;4.35;2.45;;;;;;;;;;4985372;28;20038;-66
2023/11/22 12:30:08;;;;;;;5.22;1.42;;;;;;;;;;4991367;28;20164;-66
2023/11/22 12:32:33;;;;;;;6.15;2.95;;;;;;;;;;4991610;28;20025;-66
2023/11/22 12:34:58;;;;;;;6.80;2.97;;;;;;;;;;4989361;28;20378;-66
2023/11/22 12:37:25;;;;;;;6.43;2.97;;;;;;;;;;4975858;28;20050;-66
2023/11/22 12:39:52;;;;;;;7.63;3.10;;;;;;;;;;4987045;28;20053;-66
2023/11/22 12:42:17;;;;;;;9.20;3.67;;;;;;;;;;4991097;28;20033;-66
2023/11/22 12:44:49;;;;;;;6.07;2.58;;;;;;;;;;4991555;28;20022;-66
2023/11/22 12:47:15;;;;;;;5.70;3.13;;;;;;;;;;4990117;28;20090;-66
2023/11/22 12:49:45;;;;;;;6.07;2.70;;;;;;;;;;4989773;28;20029;-66
2023/11/22 12:52:10;;;;;;;6.07;2.50;;;;;;;;;;4980019;28;20117;-66
2023/11/22 12:54:35;;;;;;;8.40;3.38;;;;;;;;;;4977629;28;20490;-66
2023/11/22 12:57:02;;;;;;;6.53;2.80;;;;;;;;;;4991915;28;20022;-66
2023/11/22 12:59:27;;;;;;;5.43;1.83;;;;;;;;;;4990696;28;20273;-66
2023/11/22 13:01:53;;;;;;;8.25;3.15;;;;;;;;;;4990346;28;20082;-66
2023/11/22 13:04:18;;;;;;;6.68;3.28;;;;;;;;;;4990107;28;20022;-66
2023/11/22 13:06:43;;;;;;;10.82;3.70;;;;;;;;;;4978951;28;20023;-66
2023/11/22 13:09:14;;;;;;;6.00;3.03;;;;;;;;;;4980636;28;20398;-65
2023/11/22 13:11:40;;;;;;;7.00;3.22;;;;;;;;;;4984779;28;20053;-66
2023/11/22 13:14:05;;;;;;;8.02;3.03;;;;;;;;;;4990307;28;20054;-66
2023/11/22 13:16:32;;;;;;;8.18;3.28;;;;;;;;;;4997749;28;20049;-66
2023/11/22 13:18:57;;;;;;;11.90;3.58;;;;;;;;;;4990959;28;20025;-66
2023/11/22 13:21:22;;;;;;;5.80;3.23;;;;;;;;;;4974177;28;20034;-66
2023/11/22 13:23:48;;;;;;;6.33;2.90;;;;;;;;;;4985568;28;20296;-66
2023/11/22 13:26:14;;;;;;;1.70;1.05;;;;;;;;;;4990847;28;20269;-66
2023/11/22 13:28:41;;;;;;;3.35;1.83;;;;;;;;;;4983921;28;20022;-66
2023/11/22 13:31:06;;;;;;;4.05;1.80;;;;;;;;;;4990818;28;20098;-66
2023/11/22 13:33:31;;;;;;;8.38;3.75;;;;;;;;;;4990674;28;20102;-65
2023/11/22 13:35:58;;;;;;;11.40;3.63;;;;;;;;;;4977807;28;20018;-66
2023/11/22 13:38:23;;;;;;;11.35;3.25;;;;;;;;;;4989374;28;20281;-66
2023/11/22 13:40:48;;;;;;;6.47;2.75;;;;;;;;;;4990535;28;20023;-66
2023/11/22 13:43:14;;;;;;;13.52;3.40;;;;;;;;;;4990495;28;20026;-66
2023/11/22 13:45:41;;;;;;;13.27;3.25;;;;;;;;;;4990364;28;20367;-66
2023/11/22 13:48:09;;;;;;;9.05;3.22;;;;;;;;;;4990729;28;20087;-66
2023/11/22 13:50:34;;;;;;;4.47;2.20;;;;;;;;;;4982730;28;20018;-66
2023/11/22 13:53:00;;;;;;;9.95;4.75;;;;;;;;;;4984047;28;20026;-66
2023/11/22 13:55:25;;;;;;;10.93;3.63;;;;;;;;;;4990098;28;20014;-66
2023/11/22 13:57:51;;;;;;;9.90;3.63;;;;;;;;;;4995081;28;20025;-66
2023/11/22 14:00:22;;;;;;;7.25;3.28;;;;;;;;;;4989705;28;20018;-66
2023/11/22 14:02:48;;;;;;;8.32;3.40;;;;;;;;;;4990399;28;20022;-66
2023/11/22 14:05:13;;;;;;;5.25;2.80;;;;;;;;;;4979151;28;20045;-66
2023/11/22 14:07:39;;;;;;;8.60;2.55;;;;;;;;;;4977670;28;20022;-66
2023/11/22 14:10:05;;;;;;;10.38;3.05;;;;;;;;;;4972127;28;20026;-66
2023/11/22 14:12:31;;;;;;;5.65;3.50;;;;;;;;;;4989776;28;20026;-66
2023/11/22 14:14:57;;;;;;;7.47;2.95;;;;;;;;;;4995478;28;20087;-66
2023/11/22 14:17:23;;;;;;;4.55;2.53;;;;;;;;;;4990984;28;20481;-66
2023/11/22 14:19:49;;;;;;;9.25;3.00;;;;;;;;;;4978135;28;20037;-66
2023/11/22 14:22:14;;;;;;;8.05;3.45;;;;;;;;;;4981859;28;20014;-66